sensor_id;sensor_type;location;lat;lon;timestamp;P1;durP1;ratioP1;P2;durP2;ratioP2
22068;SDS011;13887;57.196;-2.100;2022-08-21T00:00:47;12.60;;;12.10;;
22068;SDS011;13887;57.196;-2.100;2022-08-21T00:03:15;12.60;;;12.00;;
22068;SDS011;13887;57.196;-2.100;2022-08-21T00:05:46;12.07;;;11.57;;
22068;SDS011;13887;57.196;-2.100;2022-08-21T00:08:16;12.00;;;11.50;;
22068;SDS011;13887;57.196;-2.100;2022-08-21T00:10:44;12.67;;;11.87;;
22068;SDS011;13887;57.196;-2.100;2022-08-21T00:13:12;12.47;;;11.90;;
22068;SDS011;13887;57.196;-2.100;2022-08-21T00:15:44;12.60;;;11.90;;
22068;SDS011;13887;57.196;-2.100;2022-08-21T00:18:12;12.70;;;12.07;;
22068;SDS011;13887;57.196;-2.100;2022-08-21T00:20:40;12.70;;;12.10;;
22068;SDS011;13887;57.196;-2.100;2022-08-21T00:23:07;13.17;;;12.17;;
22068;SDS011;13887;57.196;-2.100;2022-08-21T00:25:34;12.87;;;12.03;;
22068;SDS011;13887;57.196;-2.100;2022-08-21T00:28:02;12.50;;;11.90;;
22068;SDS011;13887;57.196;-2.100;2022-08-21T00:30:29;12.60;;;12.10;;
22068;SDS011;13887;57.196;-2.100;2022-08-21T00:32:57;13.50;;;12.60;;
22068;SDS011;13887;57.196;-2.100;2022-08-21T00:35:26;12.90;;;12.30;;
22068;SDS011;13887;57.196;-2.100;2022-08-21T00:37:56;12.17;;;11.67;;
22068;SDS011;13887;57.196;-2.100;2022-08-21T00:40:28;12.20;;;11.63;;
22068;SDS011;13887;57.196;-2.100;2022-08-21T00:42:58;11.87;;;11.37;;
22068;SDS011;13887;57.196;-2.100;2022-08-21T00:45:25;12.70;;;12.20;;
22068;SDS011;13887;57.196;-2.100;2022-08-21T00:47:54;13.17;;;12.33;;
22068;SDS011;13887;57.196;-2.100;2022-08-21T00:50:21;12.80;;;12.17;;
22068;SDS011;13887;57.196;-2.100;2022-08-21T00:52:51;12.40;;;11.90;;
22068;SDS011;13887;57.196;-2.100;2022-08-21T00:55:19;12.43;;;11.73;;
22068;SDS011;13887;57.196;-2.100;2022-08-21T00:57:50;12.63;;;11.93;;
22068;SDS011;13887;57.196;-2.100;2022-08-21T01:00:21;12.80;;;12.20;;
22068;SDS011;13887;57.196;-2.100;2022-08-21T01:02:55;12.17;;;11.63;;
22068;SDS011;13887;57.196;-2.100;2022-08-21T01:05:24;12.23;;;11.73;;
22068;SDS011;13887;57.196;-2.100;2022-08-21T01:07:51;12.07;;;11.57;;
22068;SDS011;13887;57.196;-2.100;2022-08-21T01:10:18;13.00;;;12.37;;
22068;SDS011;13887;57.196;-2.100;2022-08-21T01:12:53;12.70;;;12.17;;
22068;SDS011;13887;57.196;-2.100;2022-08-21T01:15:24;12.73;;;12.13;;
22068;SDS011;13887;57.196;-2.100;2022-08-21T01:17:56;12.13;;;11.43;;
22068;SDS011;13887;57.196;-2.100;2022-08-21T01:20:24;12.37;;;11.83;;
22068;SDS011;13887;57.196;-2.100;2022-08-21T01:22:58;12.70;;;12.10;;
22068;SDS011;13887;57.196;-2.100;2022-08-21T01:25:30;13.23;;;12.30;;
22068;SDS011;13887;57.196;-2.100;2022-08-21T01:27:57;13.13;;;12.57;;
22068;SDS011;13887;57.196;-2.100;2022-08-21T01:30:28;13.27;;;12.57;;
22068;SDS011;13887;57.196;-2.100;2022-08-21T01:32:55;12.53;;;12.03;;
22068;SDS011;13887;57.196;-2.100;2022-08-21T01:35:23;12.67;;;12.07;;
22068;SDS011;13887;57.196;-2.100;2022-08-21T01:37:50;12.10;;;11.63;;
22068;SDS011;13887;57.196;-2.100;2022-08-21T01:40:17;12.53;;;12.03;;
22068;SDS011;13887;57.196;-2.100;2022-08-21T01:42:45;12.37;;;11.87;;
22068;SDS011;13887;57.196;-2.100;2022-08-21T01:45:13;13.27;;;12.37;;
22068;SDS011;13887;57.196;-2.100;2022-08-21T01:47:43;12.60;;;12.00;;
22068;SDS011;13887;57.196;-2.100;2022-08-21T01:50:12;12.13;;;11.63;;
22068;SDS011;13887;57.196;-2.100;2022-08-21T01:52:42;12.73;;;12.00;;
22068;SDS011;13887;57.196;-2.100;2022-08-21T01:55:09;12.70;;;12.07;;
22068;SDS011;13887;57.196;-2.100;2022-08-21T01:57:37;12.77;;;12.17;;
22068;SDS011;13887;57.196;-2.100;2022-08-21T02:00:06;12.77;;;12.17;;
22068;SDS011;13887;57.196;-2.100;2022-08-21T02:02:40;12.20;;;11.60;;
22068;SDS011;13887;57.196;-2.100;2022-08-21T02:05:08;12.70;;;12.00;;
22068;SDS011;13887;57.196;-2.100;2022-08-21T02:07:40;13.00;;;12.30;;
22068;SDS011;13887;57.196;-2.100;2022-08-21T02:10:20;12.73;;;11.87;;
22068;SDS011;13887;57.196;-2.100;2022-08-21T02:12:50;12.60;;;11.93;;
22068;SDS011;13887;57.196;-2.100;2022-08-21T02:15:17;12.80;;;12.30;;
22068;SDS011;13887;57.196;-2.100;2022-08-21T02:17:49;12.80;;;12.17;;
22068;SDS011;13887;57.196;-2.100;2022-08-21T02:22:53;12.67;;;12.00;;
22068;SDS011;13887;57.196;-2.100;2022-08-21T02:25:21;13.00;;;12.30;;
22068;SDS011;13887;57.196;-2.100;2022-08-21T02:27:50;13.60;;;12.60;;
22068;SDS011;13887;57.196;-2.100;2022-08-21T02:30:23;13.00;;;12.30;;
22068;SDS011;13887;57.196;-2.100;2022-08-21T02:32:53;12.60;;;12.00;;
22068;SDS011;13887;57.196;-2.100;2022-08-21T02:35:21;12.40;;;11.90;;
22068;SDS011;13887;57.196;-2.100;2022-08-21T02:37:49;12.30;;;11.63;;
22068;SDS011;13887;57.196;-2.100;2022-08-21T02:40:23;12.20;;;11.60;;
22068;SDS011;13887;57.196;-2.100;2022-08-21T02:42:52;12.40;;;11.90;;
22068;SDS011;13887;57.196;-2.100;2022-08-21T02:45:19;12.40;;;11.77;;
22068;SDS011;13887;57.196;-2.100;2022-08-21T02:47:55;12.30;;;11.80;;
22068;SDS011;13887;57.196;-2.100;2022-08-21T02:50:34;12.40;;;11.63;;
22068;SDS011;13887;57.196;-2.100;2022-08-21T02:53:06;12.07;;;11.47;;
22068;SDS011;13887;57.196;-2.100;2022-08-21T02:55:35;12.60;;;11.80;;
22068;SDS011;13887;57.196;-2.100;2022-08-21T02:58:03;11.87;;;11.37;;
22068;SDS011;13887;57.196;-2.100;2022-08-21T03:00:33;11.70;;;11.10;;
22068;SDS011;13887;57.196;-2.100;2022-08-21T03:03:01;12.20;;;11.60;;
22068;SDS011;13887;57.196;-2.100;2022-08-21T03:05:31;12.10;;;11.60;;
22068;SDS011;13887;57.196;-2.100;2022-08-21T03:08:01;12.00;;;11.23;;
22068;SDS011;13887;57.196;-2.100;2022-08-21T03:10:29;12.13;;;11.53;;
22068;SDS011;13887;57.196;-2.100;2022-08-21T03:12:57;11.83;;;11.23;;
22068;SDS011;13887;57.196;-2.100;2022-08-21T03:15:25;11.87;;;11.23;;
22068;SDS011;13887;57.196;-2.100;2022-08-21T03:17:52;12.30;;;11.70;;
22068;SDS011;13887;57.196;-2.100;2022-08-21T03:20:21;12.17;;;11.57;;
22068;SDS011;13887;57.196;-2.100;2022-08-21T03:22:50;12.20;;;11.70;;
22068;SDS011;13887;57.196;-2.100;2022-08-21T03:25:19;11.93;;;11.43;;
22068;SDS011;13887;57.196;-2.100;2022-08-21T03:28:06;12.30;;;11.57;;
22068;SDS011;13887;57.196;-2.100;2022-08-21T03:30:42;12.03;;;11.40;;
22068;SDS011;13887;57.196;-2.100;2022-08-21T03:33:11;12.10;;;11.50;;
22068;SDS011;13887;57.196;-2.100;2022-08-21T03:35:42;11.63;;;11.23;;
22068;SDS011;13887;57.196;-2.100;2022-08-21T03:38:09;12.17;;;11.57;;
22068;SDS011;13887;57.196;-2.100;2022-08-21T03:40:39;12.40;;;11.90;;
22068;SDS011;13887;57.196;-2.100;2022-08-21T03:43:07;12.10;;;11.60;;
22068;SDS011;13887;57.196;-2.100;2022-08-21T03:45:36;12.40;;;11.83;;
22068;SDS011;13887;57.196;-2.100;2022-08-21T03:48:04;12.33;;;11.73;;
22068;SDS011;13887;57.196;-2.100;2022-08-21T03:50:34;13.03;;;12.27;;
22068;SDS011;13887;57.196;-2.100;2022-08-21T03:53:07;12.73;;;11.93;;
22068;SDS011;13887;57.196;-2.100;2022-08-21T03:55:46;12.43;;;11.83;;
22068;SDS011;13887;57.196;-2.100;2022-08-21T03:58:16;13.13;;;12.23;;
22068;SDS011;13887;57.196;-2.100;2022-08-21T04:00:45;12.63;;;12.03;;
22068;SDS011;13887;57.196;-2.100;2022-08-21T04:03:13;11.90;;;11.30;;
22068;SDS011;13887;57.196;-2.100;2022-08-21T04:05:40;12.43;;;11.93;;
22068;SDS011;13887;57.196;-2.100;2022-08-21T04:08:08;12.60;;;12.00;;
22068;SDS011;13887;57.196;-2.100;2022-08-21T04:10:36;12.10;;;11.57;;
22068;SDS011;13887;57.196;-2.100;2022-08-21T04:13:05;12.70;;;12.13;;
22068;SDS011;13887;57.196;-2.100;2022-08-21T04:15:33;11.97;;;11.37;;
22068;SDS011;13887;57.196;-2.100;2022-08-21T04:18:00;12.63;;;12.03;;
22068;SDS011;13887;57.196;-2.100;2022-08-21T04:20:27;12.50;;;12.00;;
22068;SDS011;13887;57.196;-2.100;2022-08-21T04:22:54;12.83;;;12.23;;
22068;SDS011;13887;57.196;-2.100;2022-08-21T04:25:23;13.07;;;12.27;;
22068;SDS011;13887;57.196;-2.100;2022-08-21T04:27:51;12.40;;;11.90;;
22068;SDS011;13887;57.196;-2.100;2022-08-21T04:30:19;12.20;;;11.70;;
22068;SDS011;13887;57.196;-2.100;2022-08-21T04:32:54;12.93;;;12.20;;
22068;SDS011;13887;57.196;-2.100;2022-08-21T04:35:22;13.03;;;12.53;;
22068;SDS011;13887;57.196;-2.100;2022-08-21T04:37:50;13.00;;;12.40;;
22068;SDS011;13887;57.196;-2.100;2022-08-21T04:40:18;13.20;;;12.60;;
22068;SDS011;13887;57.196;-2.100;2022-08-21T04:42:51;12.90;;;12.13;;
22068;SDS011;13887;57.196;-2.100;2022-08-21T04:45:21;12.80;;;12.17;;
22068;SDS011;13887;57.196;-2.100;2022-08-21T04:47:54;13.13;;;12.33;;
22068;SDS011;13887;57.196;-2.100;2022-08-21T04:50:24;12.90;;;12.27;;
22068;SDS011;13887;57.196;-2.100;2022-08-21T04:53:06;12.67;;;12.17;;
22068;SDS011;13887;57.196;-2.100;2022-08-21T04:55:36;13.03;;;12.30;;
22068;SDS011;13887;57.196;-2.100;2022-08-21T04:58:05;13.43;;;12.63;;
22068;SDS011;13887;57.196;-2.100;2022-08-21T05:00:35;12.70;;;12.07;;
22068;SDS011;13887;57.196;-2.100;2022-08-21T05:03:03;12.77;;;12.07;;
22068;SDS011;13887;57.196;-2.100;2022-08-21T05:05:32;12.90;;;12.30;;
22068;SDS011;13887;57.196;-2.100;2022-08-21T05:07:59;13.33;;;12.70;;
22068;SDS011;13887;57.196;-2.100;2022-08-21T05:10:28;12.43;;;11.93;;
22068;SDS011;13887;57.196;-2.100;2022-08-21T05:12:57;12.20;;;11.80;;
22068;SDS011;13887;57.196;-2.100;2022-08-21T05:15:26;12.73;;;12.10;;
22068;SDS011;13887;57.196;-2.100;2022-08-21T05:17:53;12.30;;;11.80;;
22068;SDS011;13887;57.196;-2.100;2022-08-21T05:20:27;12.70;;;12.10;;
22068;SDS011;13887;57.196;-2.100;2022-08-21T05:22:54;12.50;;;11.87;;
22068;SDS011;13887;57.196;-2.100;2022-08-21T05:25:21;12.37;;;11.87;;
22068;SDS011;13887;57.196;-2.100;2022-08-21T05:27:49;12.83;;;12.23;;
22068;SDS011;13887;57.196;-2.100;2022-08-21T05:30:17;12.57;;;11.97;;
22068;SDS011;13887;57.196;-2.100;2022-08-21T05:32:45;12.70;;;11.97;;
22068;SDS011;13887;57.196;-2.100;2022-08-21T05:35:14;12.73;;;12.13;;
22068;SDS011;13887;57.196;-2.100;2022-08-21T05:37:41;12.33;;;11.93;;
22068;SDS011;13887;57.196;-2.100;2022-08-21T05:40:08;13.00;;;12.27;;
22068;SDS011;13887;57.196;-2.100;2022-08-21T05:42:49;12.90;;;12.23;;
22068;SDS011;13887;57.196;-2.100;2022-08-21T05:45:21;12.77;;;12.27;;
22068;SDS011;13887;57.196;-2.100;2022-08-21T05:48:27;12.73;;;12.13;;
22068;SDS011;13887;57.196;-2.100;2022-08-21T05:50:54;12.17;;;11.67;;
22068;SDS011;13887;57.196;-2.100;2022-08-21T05:53:22;12.90;;;12.40;;
22068;SDS011;13887;57.196;-2.100;2022-08-21T05:55:50;13.27;;;12.60;;
22068;SDS011;13887;57.196;-2.100;2022-08-21T05:58:19;12.43;;;11.83;;
22068;SDS011;13887;57.196;-2.100;2022-08-21T06:00:48;12.87;;;12.30;;
22068;SDS011;13887;57.196;-2.100;2022-08-21T06:03:18;12.70;;;12.10;;
22068;SDS011;13887;57.196;-2.100;2022-08-21T06:05:51;12.17;;;11.57;;
22068;SDS011;13887;57.196;-2.100;2022-08-21T06:08:19;12.60;;;12.10;;
22068;SDS011;13887;57.196;-2.100;2022-08-21T06:10:47;12.27;;;11.73;;
22068;SDS011;13887;57.196;-2.100;2022-08-21T06:13:15;12.20;;;11.77;;
22068;SDS011;13887;57.196;-2.100;2022-08-21T06:15:44;13.20;;;12.60;;
22068;SDS011;13887;57.196;-2.100;2022-08-21T06:18:11;11.93;;;11.43;;
22068;SDS011;13887;57.196;-2.100;2022-08-21T06:20:39;13.20;;;12.60;;
22068;SDS011;13887;57.196;-2.100;2022-08-21T06:23:06;12.60;;;12.03;;
22068;SDS011;13887;57.196;-2.100;2022-08-21T06:25:33;12.10;;;11.60;;
22068;SDS011;13887;57.196;-2.100;2022-08-21T06:28:04;12.67;;;12.07;;
22068;SDS011;13887;57.196;-2.100;2022-08-21T06:30:36;12.13;;;11.70;;
22068;SDS011;13887;57.196;-2.100;2022-08-21T06:33:05;12.37;;;11.83;;
22068;SDS011;13887;57.196;-2.100;2022-08-21T06:35:33;12.33;;;11.83;;
22068;SDS011;13887;57.196;-2.100;2022-08-21T06:38:01;12.60;;;12.10;;
22068;SDS011;13887;57.196;-2.100;2022-08-21T06:40:28;12.37;;;11.77;;
22068;SDS011;13887;57.196;-2.100;2022-08-21T06:43:07;12.60;;;12.10;;
22068;SDS011;13887;57.196;-2.100;2022-08-21T06:45:40;12.53;;;11.93;;
22068;SDS011;13887;57.196;-2.100;2022-08-21T06:48:07;12.73;;;12.10;;
22068;SDS011;13887;57.196;-2.100;2022-08-21T06:50:35;12.07;;;11.57;;
22068;SDS011;13887;57.196;-2.100;2022-08-21T06:53:07;12.97;;;12.30;;
22068;SDS011;13887;57.196;-2.100;2022-08-21T06:55:37;13.17;;;12.57;;
22068;SDS011;13887;57.196;-2.100;2022-08-21T06:58:04;12.57;;;11.97;;
22068;SDS011;13887;57.196;-2.100;2022-08-21T07:00:33;12.50;;;12.00;;
22068;SDS011;13887;57.196;-2.100;2022-08-21T07:03:00;12.70;;;12.17;;
22068;SDS011;13887;57.196;-2.100;2022-08-21T07:05:28;13.07;;;12.57;;
22068;SDS011;13887;57.196;-2.100;2022-08-21T07:07:56;12.60;;;12.20;;
22068;SDS011;13887;57.196;-2.100;2022-08-21T07:10:24;12.07;;;11.57;;
22068;SDS011;13887;57.196;-2.100;2022-08-21T07:12:53;13.10;;;12.20;;
22068;SDS011;13887;57.196;-2.100;2022-08-21T07:15:29;12.97;;;12.47;;
22068;SDS011;13887;57.196;-2.100;2022-08-21T07:17:57;12.80;;;12.30;;
22068;SDS011;13887;57.196;-2.100;2022-08-21T07:20:26;13.60;;;12.90;;
22068;SDS011;13887;57.196;-2.100;2022-08-21T07:22:55;13.60;;;12.90;;
22068;SDS011;13887;57.196;-2.100;2022-08-21T07:25:27;12.83;;;12.27;;
22068;SDS011;13887;57.196;-2.100;2022-08-21T07:27:54;13.00;;;12.50;;
22068;SDS011;13887;57.196;-2.100;2022-08-21T07:30:21;13.70;;;12.97;;
22068;SDS011;13887;57.196;-2.100;2022-08-21T07:32:49;13.47;;;12.60;;
22068;SDS011;13887;57.196;-2.100;2022-08-21T07:35:17;13.37;;;12.77;;
22068;SDS011;13887;57.196;-2.100;2022-08-21T07:37:45;13.07;;;12.57;;
22068;SDS011;13887;57.196;-2.100;2022-08-21T07:40:12;13.17;;;12.57;;
22068;SDS011;13887;57.196;-2.100;2022-08-21T07:42:40;12.10;;;11.40;;
22068;SDS011;13887;57.196;-2.100;2022-08-21T07:45:09;12.47;;;11.80;;
22068;SDS011;13887;57.196;-2.100;2022-08-21T07:47:37;12.63;;;12.13;;
22068;SDS011;13887;57.196;-2.100;2022-08-21T07:50:09;12.07;;;11.67;;
22068;SDS011;13887;57.196;-2.100;2022-08-21T07:52:38;12.77;;;12.17;;
22068;SDS011;13887;57.196;-2.100;2022-08-21T07:55:06;12.67;;;12.17;;
22068;SDS011;13887;57.196;-2.100;2022-08-21T07:57:35;12.10;;;11.60;;
22068;SDS011;13887;57.196;-2.100;2022-08-21T08:00:03;12.77;;;12.27;;
22068;SDS011;13887;57.196;-2.100;2022-08-21T08:02:37;13.30;;;12.70;;
22068;SDS011;13887;57.196;-2.100;2022-08-21T08:05:06;12.53;;;12.03;;
22068;SDS011;13887;57.196;-2.100;2022-08-21T08:07:35;12.80;;;12.30;;
22068;SDS011;13887;57.196;-2.100;2022-08-21T08:10:03;12.50;;;11.90;;
22068;SDS011;13887;57.196;-2.100;2022-08-21T08:12:32;11.90;;;11.40;;
22068;SDS011;13887;57.196;-2.100;2022-08-21T08:15:02;12.33;;;11.77;;
22068;SDS011;13887;57.196;-2.100;2022-08-21T08:17:30;12.00;;;11.50;;
22068;SDS011;13887;57.196;-2.100;2022-08-21T08:19:58;12.07;;;11.57;;
22068;SDS011;13887;57.196;-2.100;2022-08-21T08:22:28;11.80;;;11.30;;
22068;SDS011;13887;57.196;-2.100;2022-08-21T08:24:55;11.40;;;11.00;;
22068;SDS011;13887;57.196;-2.100;2022-08-21T08:27:23;12.30;;;11.80;;
22068;SDS011;13887;57.196;-2.100;2022-08-21T08:29:50;11.43;;;10.93;;
22068;SDS011;13887;57.196;-2.100;2022-08-21T08:32:18;11.73;;;11.23;;
22068;SDS011;13887;57.196;-2.100;2022-08-21T08:34:46;12.63;;;12.13;;
22068;SDS011;13887;57.196;-2.100;2022-08-21T08:37:15;13.07;;;12.47;;
22068;SDS011;13887;57.196;-2.100;2022-08-21T08:39:43;13.20;;;12.60;;
22068;SDS011;13887;57.196;-2.100;2022-08-21T08:42:14;12.37;;;11.70;;
22068;SDS011;13887;57.196;-2.100;2022-08-21T08:47:29;12.90;;;12.30;;
22068;SDS011;13887;57.196;-2.100;2022-08-21T08:50:12;11.83;;;11.43;;
22068;SDS011;13887;57.196;-2.100;2022-08-21T08:52:49;12.10;;;11.60;;
22068;SDS011;13887;57.196;-2.100;2022-08-21T08:55:22;12.43;;;12.00;;
22068;SDS011;13887;57.196;-2.100;2022-08-21T08:57:54;12.10;;;11.60;;
22068;SDS011;13887;57.196;-2.100;2022-08-21T09:00:23;12.40;;;11.80;;
22068;SDS011;13887;57.196;-2.100;2022-08-21T09:03:00;12.63;;;11.93;;
22068;SDS011;13887;57.196;-2.100;2022-08-21T09:05:29;11.23;;;10.63;;
22068;SDS011;13887;57.196;-2.100;2022-08-21T09:10:57;12.80;;;12.23;;
22068;SDS011;13887;57.196;-2.100;2022-08-21T09:13:33;13.03;;;12.43;;
22068;SDS011;13887;57.196;-2.100;2022-08-21T09:16:16;13.00;;;12.50;;
22068;SDS011;13887;57.196;-2.100;2022-08-21T09:27:07;13.57;;;12.93;;
22068;SDS011;13887;57.196;-2.100;2022-08-21T09:29:40;13.40;;;12.70;;
22068;SDS011;13887;57.196;-2.100;2022-08-21T09:32:11;13.53;;;12.93;;
22068;SDS011;13887;57.196;-2.100;2022-08-21T09:37:24;13.70;;;12.90;;
22068;SDS011;13887;57.196;-2.100;2022-08-21T09:39:51;12.97;;;12.30;;
22068;SDS011;13887;57.196;-2.100;2022-08-21T09:42:23;12.73;;;12.13;;
22068;SDS011;13887;57.196;-2.100;2022-08-21T09:45:06;13.63;;;12.90;;
22068;SDS011;13887;57.196;-2.100;2022-08-21T09:47:42;13.13;;;12.63;;
22068;SDS011;13887;57.196;-2.100;2022-08-21T09:50:16;13.57;;;12.97;;
22068;SDS011;13887;57.196;-2.100;2022-08-21T09:52:48;13.33;;;12.83;;
22068;SDS011;13887;57.196;-2.100;2022-08-21T09:56:16;13.03;;;12.43;;
22068;SDS011;13887;57.196;-2.100;2022-08-21T09:58:42;13.30;;;12.60;;
22068;SDS011;13887;57.196;-2.100;2022-08-21T10:01:16;12.63;;;12.07;;
22068;SDS011;13887;57.196;-2.100;2022-08-21T10:06:31;12.27;;;11.73;;
22068;SDS011;13887;57.196;-2.100;2022-08-21T10:12:09;11.63;;;11.13;;
22068;SDS011;13887;57.196;-2.100;2022-08-21T10:17:20;11.53;;;11.07;;
22068;SDS011;13887;57.196;-2.100;2022-08-21T10:31:21;12.47;;;11.97;;
22068;SDS011;13887;57.196;-2.100;2022-08-21T10:42:42;10.57;;;10.17;;
22068;SDS011;13887;57.196;-2.100;2022-08-21T10:47:52;11.73;;;11.23;;
22068;SDS011;13887;57.196;-2.100;2022-08-21T10:53:11;12.83;;;12.30;;
22068;SDS011;13887;57.196;-2.100;2022-08-21T10:56:01;12.47;;;12.07;;
22068;SDS011;13887;57.196;-2.100;2022-08-21T11:07:38;12.80;;;12.33;;
22068;SDS011;13887;57.196;-2.100;2022-08-21T11:13:11;12.40;;;11.90;;
22068;SDS011;13887;57.196;-2.100;2022-08-21T11:19:04;12.20;;;11.70;;
22068;SDS011;13887;57.196;-2.100;2022-08-21T11:21:36;12.10;;;11.70;;
22068;SDS011;13887;57.196;-2.100;2022-08-21T11:29:47;11.50;;;11.00;;
22068;SDS011;13887;57.196;-2.100;2022-08-21T11:45:52;11.97;;;11.47;;
22068;SDS011;13887;57.196;-2.100;2022-08-21T11:51:18;11.83;;;11.30;;
22068;SDS011;13887;57.196;-2.100;2022-08-21T11:54:03;12.20;;;11.70;;
22068;SDS011;13887;57.196;-2.100;2022-08-21T11:56:41;12.10;;;11.60;;
22068;SDS011;13887;57.196;-2.100;2022-08-21T11:59:18;12.17;;;11.67;;
22068;SDS011;13887;57.196;-2.100;2022-08-21T12:02:06;12.10;;;11.40;;
22068;SDS011;13887;57.196;-2.100;2022-08-21T12:04:46;11.87;;;11.37;;
22068;SDS011;13887;57.196;-2.100;2022-08-21T12:07:59;12.13;;;11.63;;
22068;SDS011;13887;57.196;-2.100;2022-08-21T12:10:16;11.60;;;11.20;;
22068;SDS011;13887;57.196;-2.100;2022-08-21T12:12:48;11.03;;;10.63;;
22068;SDS011;13887;57.196;-2.100;2022-08-21T12:22:52;10.87;;;10.47;;
22068;SDS011;13887;57.196;-2.100;2022-08-21T12:25:44;11.77;;;11.33;;
22068;SDS011;13887;57.196;-2.100;2022-08-21T12:28:25;11.30;;;10.90;;
22068;SDS011;13887;57.196;-2.100;2022-08-21T12:30:53;12.23;;;11.50;;
22068;SDS011;13887;57.196;-2.100;2022-08-21T12:33:30;11.57;;;11.13;;
22068;SDS011;13887;57.196;-2.100;2022-08-21T12:36:09;11.80;;;11.40;;
22068;SDS011;13887;57.196;-2.100;2022-08-21T12:38:52;12.50;;;12.00;;
22068;SDS011;13887;57.196;-2.100;2022-08-21T12:41:27;11.60;;;11.20;;
22068;SDS011;13887;57.196;-2.100;2022-08-21T12:44:00;12.30;;;11.80;;
22068;SDS011;13887;57.196;-2.100;2022-08-21T12:46:37;12.53;;;12.13;;
22068;SDS011;13887;57.196;-2.100;2022-08-21T12:49:26;13.10;;;12.60;;
22068;SDS011;13887;57.196;-2.100;2022-08-21T12:52:20;12.90;;;12.30;;
22068;SDS011;13887;57.196;-2.100;2022-08-21T12:55:01;13.07;;;12.67;;
22068;SDS011;13887;57.196;-2.100;2022-08-21T12:57:29;13.13;;;12.63;;
22068;SDS011;13887;57.196;-2.100;2022-08-21T13:00:00;13.70;;;13.20;;
22068;SDS011;13887;57.196;-2.100;2022-08-21T13:02:41;13.27;;;12.77;;
22068;SDS011;13887;57.196;-2.100;2022-08-21T13:05:13;13.30;;;12.80;;
22068;SDS011;13887;57.196;-2.100;2022-08-21T13:07:46;13.90;;;13.30;;
22068;SDS011;13887;57.196;-2.100;2022-08-21T13:13:10;13.73;;;12.90;;
22068;SDS011;13887;57.196;-2.100;2022-08-21T13:16:02;14.67;;;14.13;;
22068;SDS011;13887;57.196;-2.100;2022-08-21T13:18:33;13.57;;;13.00;;
22068;SDS011;13887;57.196;-2.100;2022-08-21T13:21:11;14.60;;;14.03;;
22068;SDS011;13887;57.196;-2.100;2022-08-21T13:23:40;13.57;;;13.07;;
22068;SDS011;13887;57.196;-2.100;2022-08-21T13:26:14;14.17;;;13.43;;
22068;SDS011;13887;57.196;-2.100;2022-08-21T13:28:46;13.00;;;12.47;;
22068;SDS011;13887;57.196;-2.100;2022-08-21T13:31:20;14.63;;;14.03;;
22068;SDS011;13887;57.196;-2.100;2022-08-21T13:33:54;13.50;;;12.97;;
22068;SDS011;13887;57.196;-2.100;2022-08-21T13:36:35;14.00;;;13.40;;
22068;SDS011;13887;57.196;-2.100;2022-08-21T13:39:16;14.20;;;13.70;;
22068;SDS011;13887;57.196;-2.100;2022-08-21T13:41:46;13.73;;;13.23;;
22068;SDS011;13887;57.196;-2.100;2022-08-21T13:44:23;12.90;;;12.30;;
22068;SDS011;13887;57.196;-2.100;2022-08-21T13:47:03;12.90;;;12.40;;
22068;SDS011;13887;57.196;-2.100;2022-08-21T13:49:33;13.60;;;13.10;;
22068;SDS011;13887;57.196;-2.100;2022-08-21T13:52:13;12.70;;;12.20;;
22068;SDS011;13887;57.196;-2.100;2022-08-21T13:54:58;12.17;;;11.77;;
22068;SDS011;13887;57.196;-2.100;2022-08-21T13:57:29;13.80;;;13.30;;
22068;SDS011;13887;57.196;-2.100;2022-08-21T14:00:16;14.33;;;13.73;;
22068;SDS011;13887;57.196;-2.100;2022-08-21T14:02:51;13.87;;;13.37;;
22068;SDS011;13887;57.196;-2.100;2022-08-21T14:05:32;12.60;;;12.20;;
22068;SDS011;13887;57.196;-2.100;2022-08-21T14:08:08;12.87;;;12.37;;
22068;SDS011;13887;57.196;-2.100;2022-08-21T14:10:43;12.40;;;12.00;;
22068;SDS011;13887;57.196;-2.100;2022-08-21T14:13:33;12.97;;;12.47;;
22068;SDS011;13887;57.196;-2.100;2022-08-21T14:16:23;13.93;;;13.33;;
22068;SDS011;13887;57.196;-2.100;2022-08-21T14:18:53;13.40;;;12.90;;
22068;SDS011;13887;57.196;-2.100;2022-08-21T14:21:33;13.20;;;12.60;;
22068;SDS011;13887;57.196;-2.100;2022-08-21T14:26:45;11.77;;;11.37;;
22068;SDS011;13887;57.196;-2.100;2022-08-21T14:29:25;11.70;;;11.30;;
22068;SDS011;13887;57.196;-2.100;2022-08-21T14:32:00;11.90;;;11.40;;
22068;SDS011;13887;57.196;-2.100;2022-08-21T14:34:50;12.53;;;12.03;;
22068;SDS011;13887;57.196;-2.100;2022-08-21T14:37:17;12.17;;;11.77;;
22068;SDS011;13887;57.196;-2.100;2022-08-21T14:39:44;12.60;;;12.00;;
22068;SDS011;13887;57.196;-2.100;2022-08-21T14:42:12;11.97;;;11.57;;
22068;SDS011;13887;57.196;-2.100;2022-08-21T14:44:39;11.70;;;11.30;;
22068;SDS011;13887;57.196;-2.100;2022-08-21T14:47:07;11.50;;;11.10;;
22068;SDS011;13887;57.196;-2.100;2022-08-21T14:49:35;12.30;;;11.90;;
22068;SDS011;13887;57.196;-2.100;2022-08-21T14:52:02;11.27;;;10.87;;
22068;SDS011;13887;57.196;-2.100;2022-08-21T14:54:30;11.30;;;10.90;;
22068;SDS011;13887;57.196;-2.100;2022-08-21T14:56:59;11.43;;;11.00;;
22068;SDS011;13887;57.196;-2.100;2022-08-21T14:59:29;11.17;;;10.57;;
22068;SDS011;13887;57.196;-2.100;2022-08-21T15:01:59;11.40;;;10.90;;
22068;SDS011;13887;57.196;-2.100;2022-08-21T15:04:27;11.37;;;10.97;;
22068;SDS011;13887;57.196;-2.100;2022-08-21T15:06:53;13.83;;;12.50;;
22068;SDS011;13887;57.196;-2.100;2022-08-21T15:09:20;14.93;;;12.10;;
22068;SDS011;13887;57.196;-2.100;2022-08-21T15:11:48;11.87;;;11.07;;
22068;SDS011;13887;57.196;-2.100;2022-08-21T15:14:17;11.27;;;10.83;;
22068;SDS011;13887;57.196;-2.100;2022-08-21T15:16:50;11.33;;;10.93;;
22068;SDS011;13887;57.196;-2.100;2022-08-21T15:19:17;12.53;;;11.57;;
22068;SDS011;13887;57.196;-2.100;2022-08-21T15:21:45;11.97;;;11.27;;
22068;SDS011;13887;57.196;-2.100;2022-08-21T15:24:12;11.80;;;11.30;;
22068;SDS011;13887;57.196;-2.100;2022-08-21T15:26:39;11.97;;;11.37;;
22068;SDS011;13887;57.196;-2.100;2022-08-21T15:29:07;11.37;;;10.70;;
22068;SDS011;13887;57.196;-2.100;2022-08-21T15:31:35;11.20;;;10.70;;
22068;SDS011;13887;57.196;-2.100;2022-08-21T15:34:03;11.17;;;10.47;;
22068;SDS011;13887;57.196;-2.100;2022-08-21T15:36:30;11.77;;;11.23;;
22068;SDS011;13887;57.196;-2.100;2022-08-21T15:38:56;11.80;;;11.20;;
22068;SDS011;13887;57.196;-2.100;2022-08-21T15:41:23;11.60;;;11.00;;
22068;SDS011;13887;57.196;-2.100;2022-08-21T15:43:51;11.57;;;11.03;;
22068;SDS011;13887;57.196;-2.100;2022-08-21T15:46:19;11.90;;;11.17;;
22068;SDS011;13887;57.196;-2.100;2022-08-21T15:48:47;11.17;;;10.67;;
22068;SDS011;13887;57.196;-2.100;2022-08-21T15:51:15;10.90;;;10.40;;
22068;SDS011;13887;57.196;-2.100;2022-08-21T15:53:43;12.10;;;11.13;;
22068;SDS011;13887;57.196;-2.100;2022-08-21T15:56:32;10.87;;;10.37;;
22068;SDS011;13887;57.196;-2.100;2022-08-21T15:59:05;10.93;;;10.53;;
22068;SDS011;13887;57.196;-2.100;2022-08-21T16:01:35;11.27;;;10.57;;
22068;SDS011;13887;57.196;-2.100;2022-08-21T16:04:11;10.90;;;10.40;;
22068;SDS011;13887;57.196;-2.100;2022-08-21T16:06:45;11.77;;;11.07;;
22068;SDS011;13887;57.196;-2.100;2022-08-21T16:09:22;11.63;;;11.03;;
22068;SDS011;13887;57.196;-2.100;2022-08-21T16:11:49;10.83;;;10.43;;
22068;SDS011;13887;57.196;-2.100;2022-08-21T16:14:17;11.07;;;10.67;;
22068;SDS011;13887;57.196;-2.100;2022-08-21T16:16:44;11.40;;;10.67;;